createdAt,value
2018-12-06T00:02:19.365Z,13.83
2018-12-06T00:04:46.895Z,13.63
2018-12-06T00:07:14.503Z,14.13
2018-12-06T00:09:41.940Z,13.47
2018-12-06T00:12:09.454Z,14.60
2018-12-06T00:14:37.011Z,14.33
2018-12-06T00:17:04.489Z,13.70
2018-12-06T00:19:31.926Z,13.53
2018-12-06T00:21:59.352Z,13.53
2018-12-06T00:24:26.832Z,13.73
2018-12-06T00:26:54.609Z,13.67
2018-12-06T00:29:22.163Z,13.57
2018-12-06T00:31:49.657Z,12.53
2018-12-06T00:34:17.290Z,13.17
2018-12-06T00:36:44.724Z,13.13
2018-12-06T00:39:12.197Z,13.07
2018-12-06T00:41:39.658Z,12.90
2018-12-06T00:44:07.335Z,12.30
2018-12-06T00:46:34.814Z,13.20
2018-12-06T00:49:02.431Z,13.57
2018-12-06T00:51:29.880Z,12.90
2018-12-06T00:53:57.370Z,13.23
2018-12-06T00:56:24.906Z,13.37
2018-12-06T00:58:52.385Z,13.10
2018-12-06T01:01:19.919Z,13.47
2018-12-06T01:03:47.421Z,12.90
2018-12-06T01:06:14.933Z,13.67
2018-12-06T01:08:42.535Z,13.60
2018-12-06T01:11:10.039Z,13.27
2018-12-06T01:13:37.496Z,13.17
2018-12-06T01:16:04.978Z,12.73
2018-12-06T01:18:32.498Z,13.50
2018-12-06T01:21:00.095Z,13.80
2018-12-06T01:23:27.581Z,14.17
2018-12-06T01:25:55.102Z,14.10
2018-12-06T01:28:22.645Z,14.10
2018-12-06T01:30:50.302Z,14.30
2018-12-06T01:33:17.741Z,14.47
2018-12-06T01:35:45.337Z,14.70
2018-12-06T01:38:12.905Z,13.77
2018-12-06T01:40:40.398Z,14.17
2018-12-06T01:43:07.831Z,13.83
2018-12-06T01:45:35.370Z,14.73
2018-12-06T01:48:02.850Z,14.53
2018-12-06T01:50:30.386Z,14.37
2018-12-06T01:52:57.988Z,14.13
2018-12-06T01:55:25.514Z,15.27
2018-12-06T01:57:52.959Z,15.13
2018-12-06T02:00:20.415Z,14.67
2018-12-06T02:02:47.989Z,15.23
2018-12-06T02:05:15.529Z,15.10
2018-12-06T02:07:43.212Z,14.87
2018-12-06T02:10:10.837Z,14.77
2018-12-06T02:12:38.336Z,13.93
2018-12-06T02:15:06.592Z,14.65
2018-12-06T02:17:34.069Z,15.60
2018-12-06T02:20:01.526Z,14.30
2018-12-06T02:22:29.172Z,13.70
2018-12-06T02:24:56.642Z,13.10
2018-12-06T02:27:24.292Z,14.53
2018-12-06T02:29:54.286Z,14.37
2018-12-06T02:32:22.029Z,14.00
2018-12-06T02:34:49.468Z,12.97
2018-12-06T02:37:16.978Z,12.80
2018-12-06T02:39:44.458Z,14.13
2018-12-06T02:42:12.053Z,12.50
2018-12-06T02:44:39.677Z,14.10
2018-12-06T02:47:07.140Z,13.53
2018-12-06T02:49:34.695Z,13.93
2018-12-06T02:52:02.237Z,13.00
2018-12-06T02:54:29.860Z,13.23
2018-12-06T02:56:57.345Z,13.80
2018-12-06T02:59:24.810Z,13.47
2018-12-06T03:01:52.577Z,13.63
2018-12-06T03:04:20.027Z,13.30
2018-12-06T03:06:47.513Z,13.43
2018-12-06T03:09:14.977Z,13.77
2018-12-06T03:11:42.508Z,13.53
2018-12-06T03:14:10.074Z,13.20
2018-12-06T03:16:37.640Z,13.37
2018-12-06T03:19:05.173Z,13.23
2018-12-06T03:21:32.738Z,12.73
2018-12-06T03:24:00.248Z,13.53
2018-12-06T03:26:27.753Z,12.43
2018-12-06T03:28:55.212Z,13.13
2018-12-06T03:31:22.698Z,12.13
2018-12-06T03:33:50.232Z,12.53
2018-12-06T03:36:17.792Z,13.20
2018-12-06T03:38:45.346Z,13.50
2018-12-06T03:41:12.788Z,13.17
2018-12-06T03:43:40.212Z,12.30
2018-12-06T03:46:07.820Z,12.87
2018-12-06T03:48:35.272Z,12.73
2018-12-06T03:51:02.721Z,12.97
2018-12-06T03:53:30.203Z,13.03
2018-12-06T03:55:57.658Z,12.90
2018-12-06T03:58:25.153Z,12.13
2018-12-06T04:00:52.660Z,12.27
2018-12-06T04:03:20.231Z,12.47
2018-12-06T04:05:47.716Z,12.73
2018-12-06T04:08:15.280Z,12.70
2018-12-06T04:10:42.824Z,12.70
2018-12-06T04:13:10.355Z,13.07
2018-12-06T04:15:38.056Z,13.50
2018-12-06T04:18:05.575Z,13.57
2018-12-06T04:20:33.114Z,12.97
2018-12-06T04:23:00.729Z,13.57
2018-12-06T04:25:28.166Z,12.80
2018-12-06T04:27:55.634Z,13.73
2018-12-06T04:30:23.199Z,12.80
2018-12-06T04:32:50.642Z,12.73
2018-12-06T04:35:18.208Z,12.63
2018-12-06T04:37:45.754Z,12.93
2018-12-06T04:40:13.241Z,13.00
2018-12-06T04:42:40.689Z,13.40
2018-12-06T04:45:10.194Z,14.50
2018-12-06T04:47:38.092Z,13.73
2018-12-06T04:50:06.721Z,13.77
2018-12-06T04:52:34.193Z,13.13
2018-12-06T04:55:01.706Z,12.67
2018-12-06T04:57:29.258Z,12.70
2018-12-06T04:59:56.706Z,12.93
2018-12-06T05:02:24.146Z,12.30
2018-12-06T05:04:51.617Z,13.53
2018-12-06T05:07:19.176Z,12.50
2018-12-06T05:09:46.606Z,12.87
2018-12-06T05:12:14.172Z,13.37
2018-12-06T05:14:41.603Z,12.90
2018-12-06T05:17:09.161Z,13.13
2018-12-06T05:19:36.721Z,13.47
2018-12-06T05:22:04.259Z,12.57
2018-12-06T05:24:31.817Z,12.80
2018-12-06T05:26:59.258Z,12.90
2018-12-06T05:29:26.750Z,13.50
2018-12-06T05:31:54.341Z,12.37
2018-12-06T05:34:21.927Z,12.90
2018-12-06T05:36:49.394Z,11.70
2018-12-06T05:39:16.871Z,12.63
2018-12-06T05:41:44.345Z,13.53
2018-12-06T05:44:11.806Z,13.80
2018-12-06T05:46:39.373Z,12.47
2018-12-06T05:49:06.840Z,13.00
2018-12-06T05:51:34.276Z,13.27
2018-12-06T05:54:01.839Z,13.33
2018-12-06T05:56:29.265Z,12.27
2018-12-06T05:58:56.879Z,13.13
2018-12-06T06:01:24.415Z,13.20
2018-12-06T06:03:51.862Z,13.40
2018-12-06T06:06:19.502Z,12.87
2018-12-06T06:08:46.994Z,14.60
2018-12-06T06:11:14.442Z,13.77
2018-12-06T06:13:41.952Z,13.03
2018-12-06T06:16:09.463Z,14.17
2018-12-06T06:18:37.018Z,15.23
2018-12-06T06:21:04.487Z,14.47
2018-12-06T06:23:31.923Z,14.07
2018-12-06T06:25:59.501Z,13.87
2018-12-06T06:28:27.054Z,14.30
2018-12-06T06:30:54.521Z,14.37
2018-12-06T06:33:21.968Z,14.63
2018-12-06T06:35:49.433Z,14.87
2018-12-06T06:38:16.879Z,13.97
2018-12-06T06:40:44.349Z,15.00
2018-12-06T06:43:11.820Z,14.20
2018-12-06T06:45:39.345Z,14.17
2018-12-06T06:48:07.040Z,13.57
2018-12-06T06:50:34.617Z,14.10
2018-12-06T06:53:02.089Z,14.03
2018-12-06T06:55:29.530Z,13.97
2018-12-06T06:57:57.141Z,14.03
2018-12-06T07:00:24.729Z,14.07
2018-12-06T07:02:52.257Z,14.67
2018-12-06T07:05:19.736Z,14.17
2018-12-06T07:10:43.670Z,15.47
2018-12-06T07:13:11.170Z,14.47
2018-12-06T07:15:38.627Z,14.37
2018-12-06T07:18:06.199Z,14.53
2018-12-06T07:20:33.646Z,13.83
2018-12-06T07:23:01.146Z,13.87
2018-12-06T07:25:28.706Z,14.03
2018-12-06T07:27:56.317Z,14.07
2018-12-06T07:30:23.859Z,13.90
2018-12-06T07:32:51.331Z,13.77
2018-12-06T07:35:18.798Z,13.77
2018-12-06T07:37:46.270Z,13.43
2018-12-06T07:40:13.807Z,14.43
2018-12-06T07:42:41.266Z,14.13
2018-12-06T07:45:08.922Z,14.40
2018-12-06T07:47:36.364Z,14.10
2018-12-06T07:50:05.071Z,13.87
2018-12-06T07:52:32.663Z,13.83
2018-12-06T07:55:00.090Z,14.50
2018-12-06T07:57:28.894Z,14.13
2018-12-06T07:59:56.734Z,15.07
2018-12-06T08:02:24.200Z,13.83
2018-12-06T08:04:51.633Z,14.47
2018-12-06T08:07:19.310Z,13.77
2018-12-06T08:09:46.773Z,13.37
2018-12-06T08:12:14.531Z,12.53
2018-12-06T08:14:42.093Z,12.87
2018-12-06T08:17:09.776Z,12.40
2018-12-06T08:19:37.207Z,12.23
2018-12-06T08:22:04.700Z,11.47
2018-12-06T08:24:32.330Z,12.20
2018-12-06T08:26:59.762Z,11.73
2018-12-06T08:29:27.276Z,11.50
2018-12-06T08:31:54.698Z,11.40
2018-12-06T08:34:22.139Z,11.33
2018-12-06T08:36:49.643Z,12.33
2018-12-06T08:39:17.281Z,12.23
2018-12-06T08:41:44.730Z,12.43
2018-12-06T08:44:13.377Z,12.13
2018-12-06T08:46:40.971Z,11.17
2018-12-06T08:49:08.435Z,11.73
2018-12-06T08:51:35.992Z,12.13
2018-12-06T08:54:03.646Z,11.70
2018-12-06T08:56:31.300Z,11.30
2018-12-06T08:58:58.982Z,11.10
2018-12-06T09:01:26.434Z,11.27
2018-12-06T09:03:53.873Z,11.70
2018-12-06T09:06:21.441Z,10.77
2018-12-06T09:08:48.897Z,10.73
2018-12-06T09:11:16.467Z,10.80
2018-12-06T09:13:44.018Z,10.43
2018-12-06T09:16:11.482Z,10.87
2018-12-06T09:18:39.256Z,10.10
2018-12-06T09:21:06.757Z,10.23
2018-12-06T09:23:34.446Z,9.70
2018-12-06T09:26:01.954Z,10.47
2018-12-06T09:28:29.456Z,9.77
2018-12-06T09:31:00.981Z,10.43
2018-12-06T09:33:26.561Z,9.57
2018-12-06T09:35:54.202Z,8.87
2018-12-06T09:38:21.754Z,8.53
2018-12-06T09:40:49.321Z,8.87
2018-12-06T09:43:16.803Z,8.80
2018-12-06T09:45:44.241Z,8.43
2018-12-06T09:48:11.690Z,8.97
2018-12-06T09:50:39.193Z,9.23
2018-12-06T09:53:06.839Z,8.40
2018-12-06T09:55:34.381Z,8.20
2018-12-06T09:58:01.966Z,8.30
2018-12-06T10:00:29.453Z,7.50
2018-12-06T10:02:56.955Z,8.83
2018-12-06T10:05:24.506Z,8.50
2018-12-06T10:07:52.062Z,8.20
2018-12-06T10:10:19.493Z,8.13
2018-12-06T10:12:46.989Z,8.60
2018-12-06T10:15:14.440Z,8.03
2018-12-06T10:17:41.890Z,8.73
2018-12-06T10:20:09.551Z,8.17
2018-12-06T10:22:37.105Z,9.20
2018-12-06T10:25:05.194Z,8.67
2018-12-06T10:27:32.682Z,8.10
2018-12-06T10:30:00.122Z,7.97
2018-12-06T10:32:27.598Z,7.77
2018-12-06T10:34:55.437Z,8.20
2018-12-06T10:37:22.887Z,8.20
2018-12-06T10:39:50.665Z,8.47
2018-12-06T10:42:18.510Z,8.43
2018-12-06T10:44:45.947Z,8.40
2018-12-06T10:47:13.525Z,7.93
2018-12-06T10:49:41.028Z,7.90
2018-12-06T10:52:08.573Z,8.17
2018-12-06T10:54:36.124Z,7.63
2018-12-06T10:57:03.572Z,7.57
2018-12-06T10:59:31.082Z,7.57
2018-12-06T11:02:04.346Z,7.00
2018-12-06T11:04:35.166Z,6.47
2018-12-06T11:07:03.895Z,6.93
2018-12-06T11:09:31.391Z,5.37
2018-12-06T11:11:58.847Z,5.87
2018-12-06T11:14:26.513Z,6.17
2018-12-06T11:16:53.962Z,5.83
2018-12-06T11:19:21.424Z,5.83
2018-12-06T11:21:48.970Z,5.20
2018-12-06T11:24:16.508Z,5.13
2018-12-06T11:26:43.955Z,5.43
2018-12-06T11:29:11.665Z,5.17
2018-12-06T11:31:39.419Z,5.23
2018-12-06T11:34:06.917Z,5.23
2018-12-06T11:36:34.439Z,5.17
2018-12-06T11:39:02.099Z,4.60
2018-12-06T11:41:29.550Z,5.07
2018-12-06T11:43:57.022Z,5.23
2018-12-06T11:46:24.650Z,4.30
2018-12-06T11:48:52.061Z,4.40
2018-12-06T11:51:19.591Z,4.63
2018-12-06T11:53:47.255Z,4.77
2018-12-06T11:56:14.819Z,4.90
2018-12-06T11:58:42.262Z,4.80
2018-12-06T12:01:09.753Z,4.07
2018-12-06T12:03:37.298Z,4.17
2018-12-06T12:06:04.837Z,4.10
2018-12-06T12:08:32.494Z,4.20
2018-12-06T12:11:00.071Z,3.70
2018-12-06T12:13:27.623Z,3.60
2018-12-06T12:15:55.183Z,3.43
2018-12-06T12:18:22.634Z,4.03
2018-12-06T12:20:50.078Z,3.77
2018-12-06T12:23:17.757Z,3.87
2018-12-06T12:25:45.291Z,4.13
2018-12-06T12:28:12.778Z,4.03
2018-12-06T12:30:40.325Z,4.03
2018-12-06T12:33:07.898Z,3.93
2018-12-06T12:35:35.518Z,4.10
2018-12-06T12:38:03.133Z,3.93
2018-12-06T12:40:30.573Z,3.40
2018-12-06T12:42:58.139Z,3.77
2018-12-06T12:45:25.615Z,3.87
2018-12-06T12:47:53.076Z,3.70
2018-12-06T12:50:20.601Z,3.67
2018-12-06T12:52:48.154Z,3.00
2018-12-06T12:55:15.677Z,2.77
2018-12-06T12:57:43.186Z,3.00
2018-12-06T13:00:10.695Z,2.90
2018-12-06T13:02:38.295Z,3.13
2018-12-06T13:05:07.074Z,3.17
2018-12-06T13:07:34.542Z,3.40
2018-12-06T13:10:01.989Z,3.30
2018-12-06T13:12:29.583Z,3.20
2018-12-06T13:14:57.312Z,3.00
2018-12-06T13:17:24.877Z,2.90
2018-12-06T13:19:52.311Z,3.07
2018-12-06T13:22:19.898Z,3.20
2018-12-06T13:24:47.449Z,2.40
2018-12-06T13:27:15.166Z,2.57
2018-12-06T13:29:42.666Z,2.50
2018-12-06T13:32:10.130Z,2.40
2018-12-06T13:34:37.600Z,2.80
2018-12-06T13:37:05.246Z,2.57
2018-12-06T13:39:32.783Z,2.90
2018-12-06T13:42:00.272Z,2.90
2018-12-06T13:44:27.875Z,2.80
2018-12-06T13:46:56.002Z,5.07
2018-12-06T13:49:23.575Z,3.73
2018-12-06T13:51:51.125Z,3.10
2018-12-06T13:54:18.631Z,3.67
2018-12-06T13:56:46.254Z,4.00
2018-12-06T13:59:13.726Z,3.77
2018-12-06T14:01:41.157Z,4.00
2018-12-06T14:04:08.611Z,4.40
2018-12-06T14:06:36.266Z,4.13
2018-12-06T14:09:05.674Z,5.30
2018-12-06T14:11:33.227Z,5.03
2018-12-06T14:14:00.697Z,4.63
2018-12-06T14:16:28.249Z,4.73
2018-12-06T14:18:55.803Z,4.70
2018-12-06T14:21:23.666Z,4.17
2018-12-06T14:23:51.131Z,4.77
2018-12-06T14:26:19.515Z,3.93
2018-12-06T14:28:47.057Z,4.57
2018-12-06T14:31:14.555Z,4.80
2018-12-06T14:33:42.068Z,4.70
2018-12-06T14:36:09.654Z,4.33
2018-12-06T14:38:37.135Z,5.20
2018-12-06T14:41:04.610Z,4.00
2018-12-06T14:43:32.115Z,5.23
2018-12-06T14:45:59.626Z,4.20
2018-12-06T14:48:27.282Z,3.67
2018-12-06T14:50:54.798Z,3.80
2018-12-06T14:53:22.267Z,3.70
2018-12-06T14:55:49.731Z,3.40
2018-12-06T14:58:17.270Z,3.07
2018-12-06T15:00:45.035Z,3.67
2018-12-06T15:03:12.492Z,3.03
2018-12-06T15:05:39.918Z,3.17
2018-12-06T15:08:07.401Z,3.10
2018-12-06T15:10:34.859Z,2.93
2018-12-06T15:13:02.298Z,2.77
2018-12-06T15:15:29.767Z,3.07
2018-12-06T15:18:08.151Z,3.03
2018-12-06T15:20:35.640Z,3.00
2018-12-06T15:23:03.179Z,3.07
2018-12-06T15:25:30.615Z,2.87
2018-12-06T15:27:58.109Z,2.80
2018-12-06T15:30:25.617Z,2.80
2018-12-06T15:32:53.132Z,2.90
2018-12-06T15:35:20.689Z,2.93
2018-12-06T15:37:48.253Z,3.20
2018-12-06T15:40:15.690Z,3.03
2018-12-06T15:42:43.261Z,3.10
2018-12-06T15:45:10.729Z,2.97
2018-12-06T15:47:38.162Z,3.20
2018-12-06T15:50:06.678Z,3.30
2018-12-06T15:52:34.237Z,3.07
2018-12-06T15:55:01.699Z,3.17
2018-12-06T15:57:29.350Z,3.40
2018-12-06T15:59:56.902Z,3.40
2018-12-06T16:02:24.453Z,3.00
2018-12-06T16:04:52.128Z,3.50
2018-12-06T16:07:19.684Z,3.10
2018-12-06T16:09:47.129Z,3.20
2018-12-06T16:12:14.689Z,3.50
2018-12-06T16:14:42.157Z,3.20
2018-12-06T16:17:09.626Z,3.03
2018-12-06T16:19:37.177Z,2.90
2018-12-06T16:22:04.726Z,2.80
2018-12-06T16:24:32.266Z,3.47
2018-12-06T16:26:59.731Z,3.50
2018-12-06T16:29:27.278Z,3.33
2018-12-06T16:31:54.835Z,3.57
2018-12-06T16:34:22.262Z,3.40
2018-12-06T16:36:49.874Z,3.77
2018-12-06T16:39:17.392Z,4.07
2018-12-06T16:41:44.902Z,3.60
2018-12-06T16:44:12.353Z,4.00
2018-12-06T16:46:40.011Z,3.53
2018-12-06T16:49:10.327Z,3.77
2018-12-06T16:51:36.978Z,3.60
2018-12-06T16:54:04.534Z,3.90
2018-12-06T16:56:31.991Z,4.47
2018-12-06T16:58:59.422Z,4.30
2018-12-06T17:01:26.910Z,3.97
2018-12-06T17:03:54.448Z,4.27
2018-12-06T17:06:21.914Z,4.20
2018-12-06T17:08:49.430Z,4.10
2018-12-06T17:11:16.937Z,3.63
2018-12-06T17:13:44.607Z,3.80
2018-12-06T17:16:12.389Z,3.70
2018-12-06T17:18:39.826Z,3.87
2018-12-06T17:21:07.277Z,3.57
2018-12-06T17:23:34.779Z,4.13
2018-12-06T17:26:02.222Z,3.90
2018-12-06T17:28:29.662Z,3.60
2018-12-06T17:30:57.423Z,4.00
2018-12-06T17:33:24.888Z,4.00
2018-12-06T17:35:52.435Z,3.70
2018-12-06T17:38:19.965Z,4.03
2018-12-06T17:40:47.542Z,4.13
2018-12-06T17:43:14.997Z,5.20
2018-12-06T17:45:42.571Z,4.53
2018-12-06T17:48:10.051Z,4.20
2018-12-06T17:50:37.495Z,4.20
2018-12-06T17:53:05.195Z,4.00
2018-12-06T17:55:32.699Z,4.50
2018-12-06T17:58:00.186Z,4.67
2018-12-06T18:00:27.718Z,3.67
2018-12-06T18:02:55.165Z,3.43
2018-12-06T18:05:22.630Z,3.60
2018-12-06T18:07:50.202Z,4.07
2018-12-06T18:10:17.782Z,3.70
2018-12-06T18:12:45.220Z,3.77
2018-12-06T18:15:12.855Z,3.57
2018-12-06T18:17:40.419Z,3.70
2018-12-06T18:20:08.009Z,3.90
2018-12-06T18:22:35.531Z,3.90
2018-12-06T18:25:03.908Z,4.20
2018-12-06T18:27:32.418Z,4.40
2018-12-06T18:29:59.893Z,4.70
2018-12-06T18:32:27.343Z,4.90
2018-12-06T18:34:54.862Z,6.63
2018-12-06T18:37:22.361Z,5.73
2018-12-06T18:39:49.890Z,5.00
2018-12-06T18:42:17.437Z,4.80
2018-12-06T18:44:44.913Z,5.17
2018-12-06T18:47:12.369Z,4.70
2018-12-06T18:49:39.917Z,5.00
2018-12-06T18:52:07.359Z,5.53
2018-12-06T18:54:34.787Z,5.17
2018-12-06T18:57:02.365Z,4.67
2018-12-06T18:59:29.771Z,5.13
2018-12-06T19:01:57.402Z,4.87
2018-12-06T19:04:25.112Z,4.63
2018-12-06T19:06:52.701Z,5.17
2018-12-06T19:09:20.323Z,4.40
2018-12-06T19:11:47.827Z,4.47
2018-12-06T19:14:21.582Z,4.77
2018-12-06T19:16:44.870Z,4.20
2018-12-06T19:19:12.325Z,4.63
2018-12-06T19:21:39.914Z,4.73
2018-12-06T19:24:07.510Z,3.83
2018-12-06T19:26:34.990Z,4.37
2018-12-06T19:29:02.457Z,4.30
2018-12-06T19:31:29.968Z,4.47
2018-12-06T19:33:57.398Z,4.67
2018-12-06T19:36:24.857Z,4.50
2018-12-06T19:38:52.416Z,4.47
2018-12-06T19:41:19.841Z,4.60
2018-12-06T19:43:47.360Z,4.90
2018-12-06T19:46:15.118Z,4.80
2018-12-06T19:48:42.585Z,4.80
2018-12-06T19:51:10.065Z,4.73
2018-12-06T19:53:37.597Z,5.10
2018-12-06T19:56:05.118Z,4.93
2018-12-06T19:58:32.590Z,4.87
2018-12-06T20:01:00.159Z,4.57
2018-12-06T20:03:27.595Z,5.43
2018-12-06T20:05:55.174Z,5.10
2018-12-06T20:08:22.832Z,4.33
2018-12-06T20:10:50.385Z,3.73
2018-12-06T20:13:17.851Z,4.23
2018-12-06T20:15:45.532Z,4.43
2018-12-06T20:18:12.969Z,3.43
2018-12-06T20:20:40.411Z,3.40
2018-12-06T20:23:08.135Z,3.57
2018-12-06T20:25:35.648Z,3.30
2018-12-06T20:28:03.119Z,3.60
2018-12-06T20:30:30.867Z,3.97
2018-12-06T20:32:58.422Z,3.77
2018-12-06T20:35:25.980Z,3.30
2018-12-06T20:37:53.543Z,3.73
2018-12-06T20:40:21.102Z,3.60
2018-12-06T20:42:48.749Z,3.60
2018-12-06T20:45:16.296Z,3.60
2018-12-06T20:47:43.772Z,3.50
2018-12-06T20:50:11.249Z,4.00
2018-12-06T20:52:38.702Z,3.60
2018-12-06T20:55:06.757Z,3.80
2018-12-06T20:57:37.349Z,3.30
2018-12-06T21:00:04.950Z,3.30
2018-12-06T21:02:32.796Z,3.47
2018-12-06T21:05:00.255Z,3.70
2018-12-06T21:07:27.834Z,3.50
2018-12-06T21:09:55.342Z,3.57
2018-12-06T21:12:22.854Z,3.00
2018-12-06T21:14:50.310Z,3.37
2018-12-06T21:17:17.779Z,3.83
2018-12-06T21:19:45.354Z,3.60
2018-12-06T21:22:12.817Z,3.60
2018-12-06T21:24:40.335Z,4.00
2018-12-06T21:27:07.807Z,4.27
2018-12-06T21:29:35.279Z,4.50
2018-12-06T21:32:02.807Z,3.83
2018-12-06T21:34:30.298Z,4.67
2018-12-06T21:36:57.775Z,4.63
2018-12-06T21:39:25.289Z,5.30
2018-12-06T21:41:52.748Z,4.70
2018-12-06T21:44:20.177Z,5.40
2018-12-06T21:46:47.622Z,5.23
2018-12-06T21:49:15.117Z,4.73
2018-12-06T21:51:42.579Z,5.20
2018-12-06T21:54:10.114Z,5.13
2018-12-06T21:56:37.590Z,4.60
2018-12-06T21:59:05.073Z,4.97
2018-12-06T22:01:32.604Z,4.90
2018-12-06T22:04:00.026Z,4.70
2018-12-06T22:06:27.536Z,4.63
2018-12-06T22:08:54.982Z,4.37
2018-12-06T22:11:22.521Z,3.70
2018-12-06T22:13:50.117Z,3.57
2018-12-06T22:16:17.561Z,2.93
2018-12-06T22:18:45.086Z,5.50
2018-12-06T22:21:12.642Z,5.33
2018-12-06T22:23:40.069Z,6.00
2018-12-06T22:26:07.505Z,5.40
2018-12-06T22:28:35.123Z,4.93
2018-12-06T22:31:02.562Z,4.23
2018-12-06T22:33:30.145Z,4.00
2018-12-06T22:35:57.597Z,3.70
2018-12-06T22:38:25.025Z,3.50
2018-12-06T22:40:52.503Z,3.37
2018-12-06T22:43:19.951Z,4.10
2018-12-06T22:45:52.050Z,3.00
2018-12-06T22:48:19.491Z,2.90
2018-12-06T22:50:46.952Z,2.60
2018-12-06T22:53:14.502Z,3.20
2018-12-06T22:55:41.954Z,2.20
2018-12-06T22:58:09.391Z,2.33
2018-12-06T23:00:37.395Z,2.50
2018-12-06T23:03:04.955Z,2.40
2018-12-06T23:05:32.386Z,2.23
2018-12-06T23:07:59.861Z,2.20
2018-12-06T23:10:27.327Z,2.10
2018-12-06T23:12:54.768Z,2.30
2018-12-06T23:15:22.221Z,2.20
2018-12-06T23:17:49.657Z,2.30
2018-12-06T23:20:17.102Z,2.40
2018-12-06T23:22:44.570Z,3.10
2018-12-06T23:25:12.005Z,2.70
2018-12-06T23:27:39.434Z,2.70
2018-12-06T23:30:07.096Z,2.90
2018-12-06T23:32:34.554Z,3.00
2018-12-06T23:35:01.989Z,3.10
2018-12-06T23:37:29.490Z,2.73
2018-12-06T23:39:57.011Z,3.00
2018-12-06T23:42:24.565Z,2.93
2018-12-06T23:44:52.348Z,3.13
2018-12-06T23:47:19.804Z,2.97
2018-12-06T23:49:47.222Z,3.00
2018-12-06T23:52:14.834Z,1.90
2018-12-06T23:54:42.294Z,1.60
2018-12-06T23:57:09.757Z,1.43
2018-12-06T23:59:37.266Z,1.00
